sensor_id;sensor_type;location;lat;lon;timestamp;P1;durP1;ratioP1;P2;durP2;ratioP2
39218;SDS011;24934;52.752;6.964;2023-04-07T00:01:55;45.43;;;36.43;;
39218;SDS011;24934;52.752;6.964;2023-04-07T00:04:21;49.37;;;38.17;;
39218;SDS011;24934;52.752;6.964;2023-04-07T00:06:46;49.80;;;38.23;;
39218;SDS011;24934;52.752;6.964;2023-04-07T00:09:12;54.27;;;39.30;;
39218;SDS011;24934;52.752;6.964;2023-04-07T00:11:37;51.23;;;38.70;;
39218;SDS011;24934;52.752;6.964;2023-04-07T00:14:03;50.43;;;38.63;;
39218;SDS011;24934;52.752;6.964;2023-04-07T00:16:29;50.90;;;38.53;;
39218;SDS011;24934;52.752;6.964;2023-04-07T00:18:55;47.77;;;38.23;;
39218;SDS011;24934;52.752;6.964;2023-04-07T00:21:20;54.77;;;38.47;;
39218;SDS011;24934;52.752;6.964;2023-04-07T00:23:46;55.37;;;39.80;;
39218;SDS011;24934;52.752;6.964;2023-04-07T00:26:14;53.00;;;39.07;;
39218;SDS011;24934;52.752;6.964;2023-04-07T00:28:40;49.87;;;39.13;;
39218;SDS011;24934;52.752;6.964;2023-04-07T00:31:06;52.50;;;39.97;;
39218;SDS011;24934;52.752;6.964;2023-04-07T00:33:32;53.17;;;40.93;;
39218;SDS011;24934;52.752;6.964;2023-04-07T00:36:00;53.93;;;40.63;;
39218;SDS011;24934;52.752;6.964;2023-04-07T00:38:26;53.23;;;40.27;;
39218;SDS011;24934;52.752;6.964;2023-04-07T00:41:00;53.23;;;39.43;;
39218;SDS011;24934;52.752;6.964;2023-04-07T00:43:26;51.43;;;40.13;;
39218;SDS011;24934;52.752;6.964;2023-04-07T00:45:52;53.93;;;40.83;;
39218;SDS011;24934;52.752;6.964;2023-04-07T00:48:18;53.47;;;41.37;;
39218;SDS011;24934;52.752;6.964;2023-04-07T00:50:44;53.90;;;40.60;;
39218;SDS011;24934;52.752;6.964;2023-04-07T00:53:11;53.10;;;41.00;;
39218;SDS011;24934;52.752;6.964;2023-04-07T00:55:37;51.87;;;41.30;;
39218;SDS011;24934;52.752;6.964;2023-04-07T00:58:03;54.17;;;40.30;;
39218;SDS011;24934;52.752;6.964;2023-04-07T01:00:30;53.73;;;41.90;;
39218;SDS011;24934;52.752;6.964;2023-04-07T01:03:08;51.20;;;40.37;;
39218;SDS011;24934;52.752;6.964;2023-04-07T01:05:53;59.03;;;40.47;;
39218;SDS011;24934;52.752;6.964;2023-04-07T01:08:25;52.53;;;41.03;;
39218;SDS011;24934;52.752;6.964;2023-04-07T01:11:11;52.87;;;41.70;;
39218;SDS011;24934;52.752;6.964;2023-04-07T01:13:50;53.33;;;42.03;;
39218;SDS011;24934;52.752;6.964;2023-04-07T01:16:37;54.97;;;43.53;;
39218;SDS011;24934;52.752;6.964;2023-04-07T01:19:14;54.90;;;42.40;;
39218;SDS011;24934;52.752;6.964;2023-04-07T01:21:59;52.93;;;41.97;;
39218;SDS011;24934;52.752;6.964;2023-04-07T01:27:30;54.70;;;42.23;;
39218;SDS011;24934;52.752;6.964;2023-04-07T01:30:14;53.60;;;42.90;;
39218;SDS011;24934;52.752;6.964;2023-04-07T01:32:42;57.10;;;43.20;;
39218;SDS011;24934;52.752;6.964;2023-04-07T01:35:17;54.27;;;42.33;;
39218;SDS011;24934;52.752;6.964;2023-04-07T01:37:44;53.70;;;43.00;;
39218;SDS011;24934;52.752;6.964;2023-04-07T01:40:12;55.17;;;44.57;;
39218;SDS011;24934;52.752;6.964;2023-04-07T01:42:40;58.03;;;45.57;;
39218;SDS011;24934;52.752;6.964;2023-04-07T01:45:07;55.47;;;43.90;;
39218;SDS011;24934;52.752;6.964;2023-04-07T01:47:34;58.47;;;42.93;;
39218;SDS011;24934;52.752;6.964;2023-04-07T01:50:01;59.23;;;44.03;;
39218;SDS011;24934;52.752;6.964;2023-04-07T01:52:33;56.40;;;44.33;;
39218;SDS011;24934;52.752;6.964;2023-04-07T01:55:00;59.50;;;44.03;;
39218;SDS011;24934;52.752;6.964;2023-04-07T01:57:26;62.07;;;45.43;;
39218;SDS011;24934;52.752;6.964;2023-04-07T01:59:52;60.63;;;45.80;;
39218;SDS011;24934;52.752;6.964;2023-04-07T02:02:18;59.90;;;46.03;;
39218;SDS011;24934;52.752;6.964;2023-04-07T02:04:45;63.00;;;48.13;;
39218;SDS011;24934;52.752;6.964;2023-04-07T02:10:22;62.93;;;46.40;;
39218;SDS011;24934;52.752;6.964;2023-04-07T02:12:49;62.33;;;47.80;;
39218;SDS011;24934;52.752;6.964;2023-04-07T02:15:16;63.47;;;47.17;;
39218;SDS011;24934;52.752;6.964;2023-04-07T02:17:50;69.37;;;47.87;;
39218;SDS011;24934;52.752;6.964;2023-04-07T02:20:19;62.57;;;48.27;;
39218;SDS011;24934;52.752;6.964;2023-04-07T02:22:46;65.20;;;48.00;;
39218;SDS011;24934;52.752;6.964;2023-04-07T02:25:27;61.90;;;47.10;;
39218;SDS011;24934;52.752;6.964;2023-04-07T02:27:54;70.23;;;49.17;;
39218;SDS011;24934;52.752;6.964;2023-04-07T02:30:21;65.40;;;47.93;;
39218;SDS011;24934;52.752;6.964;2023-04-07T02:32:47;64.50;;;47.70;;
39218;SDS011;24934;52.752;6.964;2023-04-07T02:35:13;64.43;;;47.87;;
39218;SDS011;24934;52.752;6.964;2023-04-07T02:37:40;63.03;;;46.07;;
39218;SDS011;24934;52.752;6.964;2023-04-07T02:40:06;65.57;;;46.30;;
39218;SDS011;24934;52.752;6.964;2023-04-07T02:42:32;65.60;;;45.87;;
39218;SDS011;24934;52.752;6.964;2023-04-07T02:44:58;65.27;;;44.93;;
39218;SDS011;24934;52.752;6.964;2023-04-07T02:47:24;64.60;;;46.03;;
39218;SDS011;24934;52.752;6.964;2023-04-07T02:49:50;63.10;;;45.00;;
39218;SDS011;24934;52.752;6.964;2023-04-07T02:52:16;61.23;;;45.40;;
39218;SDS011;24934;52.752;6.964;2023-04-07T02:54:42;63.27;;;45.87;;
39218;SDS011;24934;52.752;6.964;2023-04-07T02:57:07;63.53;;;45.10;;
39218;SDS011;24934;52.752;6.964;2023-04-07T02:59:33;63.40;;;44.63;;
39218;SDS011;24934;52.752;6.964;2023-04-07T03:01:59;69.17;;;46.27;;
39218;SDS011;24934;52.752;6.964;2023-04-07T03:04:25;64.73;;;43.70;;
39218;SDS011;24934;52.752;6.964;2023-04-07T03:06:53;64.47;;;45.67;;
39218;SDS011;24934;52.752;6.964;2023-04-07T03:09:18;68.60;;;45.77;;
39218;SDS011;24934;52.752;6.964;2023-04-07T03:11:44;63.33;;;44.23;;
39218;SDS011;24934;52.752;6.964;2023-04-07T03:14:09;68.13;;;46.47;;
39218;SDS011;24934;52.752;6.964;2023-04-07T03:16:35;69.57;;;46.00;;
39218;SDS011;24934;52.752;6.964;2023-04-07T03:19:00;69.00;;;45.83;;
39218;SDS011;24934;52.752;6.964;2023-04-07T03:21:26;75.33;;;47.87;;
39218;SDS011;24934;52.752;6.964;2023-04-07T03:23:53;69.30;;;47.40;;
39218;SDS011;24934;52.752;6.964;2023-04-07T03:26:19;66.73;;;45.97;;
39218;SDS011;24934;52.752;6.964;2023-04-07T03:28:45;72.57;;;47.03;;
39218;SDS011;24934;52.752;6.964;2023-04-07T03:31:11;71.07;;;46.23;;
39218;SDS011;24934;52.752;6.964;2023-04-07T03:33:36;74.20;;;47.13;;
39218;SDS011;24934;52.752;6.964;2023-04-07T03:36:02;68.67;;;45.00;;
39218;SDS011;24934;52.752;6.964;2023-04-07T03:38:28;70.33;;;47.27;;
39218;SDS011;24934;52.752;6.964;2023-04-07T03:40:53;67.37;;;45.43;;
39218;SDS011;24934;52.752;6.964;2023-04-07T03:43:19;68.47;;;45.27;;
39218;SDS011;24934;52.752;6.964;2023-04-07T03:45:45;70.57;;;46.83;;
39218;SDS011;24934;52.752;6.964;2023-04-07T03:48:11;68.73;;;45.90;;
39218;SDS011;24934;52.752;6.964;2023-04-07T03:50:37;73.60;;;47.10;;
39218;SDS011;24934;52.752;6.964;2023-04-07T03:53:04;75.97;;;47.67;;
39218;SDS011;24934;52.752;6.964;2023-04-07T03:55:29;74.83;;;48.33;;
39218;SDS011;24934;52.752;6.964;2023-04-07T03:57:56;73.57;;;48.77;;
39218;SDS011;24934;52.752;6.964;2023-04-07T04:00:21;78.07;;;49.53;;
39218;SDS011;24934;52.752;6.964;2023-04-07T04:02:47;76.50;;;49.47;;
39218;SDS011;24934;52.752;6.964;2023-04-07T04:05:13;74.00;;;48.07;;
39218;SDS011;24934;52.752;6.964;2023-04-07T04:07:41;71.53;;;47.07;;
39218;SDS011;24934;52.752;6.964;2023-04-07T04:10:07;72.07;;;46.80;;
39218;SDS011;24934;52.752;6.964;2023-04-07T04:12:33;71.07;;;46.30;;
39218;SDS011;24934;52.752;6.964;2023-04-07T04:14:58;74.47;;;48.27;;
39218;SDS011;24934;52.752;6.964;2023-04-07T04:17:24;67.20;;;46.10;;
39218;SDS011;24934;52.752;6.964;2023-04-07T04:19:50;72.83;;;46.83;;
39218;SDS011;24934;52.752;6.964;2023-04-07T04:22:16;72.13;;;46.90;;
39218;SDS011;24934;52.752;6.964;2023-04-07T04:24:42;71.10;;;46.27;;
39218;SDS011;24934;52.752;6.964;2023-04-07T04:27:09;71.87;;;46.03;;
39218;SDS011;24934;52.752;6.964;2023-04-07T04:29:34;67.20;;;44.33;;
39218;SDS011;24934;52.752;6.964;2023-04-07T04:32:00;70.43;;;45.73;;
39218;SDS011;24934;52.752;6.964;2023-04-07T04:34:29;71.37;;;45.73;;
39218;SDS011;24934;52.752;6.964;2023-04-07T04:36:55;71.40;;;45.87;;
39218;SDS011;24934;52.752;6.964;2023-04-07T04:39:21;70.47;;;46.37;;
39218;SDS011;24934;52.752;6.964;2023-04-07T04:41:47;68.33;;;44.70;;
39218;SDS011;24934;52.752;6.964;2023-04-07T04:44:12;68.67;;;45.63;;
39218;SDS011;24934;52.752;6.964;2023-04-07T04:46:38;73.17;;;46.10;;
39218;SDS011;24934;52.752;6.964;2023-04-07T04:49:04;79.07;;;46.80;;
39218;SDS011;24934;52.752;6.964;2023-04-07T04:51:59;67.60;;;45.47;;
39218;SDS011;24934;52.752;6.964;2023-04-07T04:54:24;73.13;;;46.23;;
39218;SDS011;24934;52.752;6.964;2023-04-07T04:56:50;73.37;;;46.23;;
39218;SDS011;24934;52.752;6.964;2023-04-07T04:59:16;75.03;;;47.10;;
39218;SDS011;24934;52.752;6.964;2023-04-07T05:01:41;72.23;;;47.53;;
39218;SDS011;24934;52.752;6.964;2023-04-07T05:04:07;72.67;;;47.30;;
39218;SDS011;24934;52.752;6.964;2023-04-07T05:06:34;73.00;;;48.23;;
39218;SDS011;24934;52.752;6.964;2023-04-07T05:09:02;78.20;;;48.53;;
39218;SDS011;24934;52.752;6.964;2023-04-07T05:11:28;75.07;;;48.17;;
39218;SDS011;24934;52.752;6.964;2023-04-07T05:13:53;76.90;;;49.60;;
39218;SDS011;24934;52.752;6.964;2023-04-07T05:16:19;72.63;;;48.10;;
39218;SDS011;24934;52.752;6.964;2023-04-07T05:18:44;75.03;;;48.87;;
39218;SDS011;24934;52.752;6.964;2023-04-07T05:21:10;74.23;;;49.13;;
39218;SDS011;24934;52.752;6.964;2023-04-07T05:23:42;78.20;;;49.00;;
39218;SDS011;24934;52.752;6.964;2023-04-07T05:26:10;74.00;;;49.40;;
39218;SDS011;24934;52.752;6.964;2023-04-07T05:28:36;75.77;;;49.97;;
39218;SDS011;24934;52.752;6.964;2023-04-07T05:31:01;76.70;;;49.83;;
39218;SDS011;24934;52.752;6.964;2023-04-07T05:33:27;74.90;;;49.70;;
39218;SDS011;24934;52.752;6.964;2023-04-07T05:35:52;75.70;;;49.63;;
39218;SDS011;24934;52.752;6.964;2023-04-07T05:38:20;78.07;;;49.57;;
39218;SDS011;24934;52.752;6.964;2023-04-07T05:40:48;73.10;;;49.17;;
39218;SDS011;24934;52.752;6.964;2023-04-07T05:43:14;76.50;;;48.87;;
39218;SDS011;24934;52.752;6.964;2023-04-07T05:45:39;72.47;;;48.97;;
39218;SDS011;24934;52.752;6.964;2023-04-07T05:48:05;80.80;;;50.27;;
39218;SDS011;24934;52.752;6.964;2023-04-07T05:50:30;81.80;;;50.47;;
39218;SDS011;24934;52.752;6.964;2023-04-07T05:52:56;70.87;;;48.53;;
39218;SDS011;24934;52.752;6.964;2023-04-07T05:55:22;80.10;;;50.17;;
39218;SDS011;24934;52.752;6.964;2023-04-07T05:57:47;72.57;;;50.10;;
39218;SDS011;24934;52.752;6.964;2023-04-07T06:00:16;79.07;;;50.80;;
39218;SDS011;24934;52.752;6.964;2023-04-07T06:02:44;79.17;;;51.37;;
39218;SDS011;24934;52.752;6.964;2023-04-07T06:05:10;78.10;;;50.20;;
39218;SDS011;24934;52.752;6.964;2023-04-07T06:07:36;73.67;;;50.60;;
39218;SDS011;24934;52.752;6.964;2023-04-07T06:10:02;81.70;;;50.87;;
39218;SDS011;24934;52.752;6.964;2023-04-07T06:12:28;73.07;;;51.40;;
39218;SDS011;24934;52.752;6.964;2023-04-07T06:14:56;72.60;;;49.17;;
39218;SDS011;24934;52.752;6.964;2023-04-07T06:17:22;76.23;;;51.77;;
39218;SDS011;24934;52.752;6.964;2023-04-07T06:19:48;75.90;;;51.40;;
39218;SDS011;24934;52.752;6.964;2023-04-07T06:22:13;73.17;;;51.70;;
39218;SDS011;24934;52.752;6.964;2023-04-07T06:24:39;75.17;;;51.63;;
39218;SDS011;24934;52.752;6.964;2023-04-07T06:27:05;79.27;;;51.87;;
39218;SDS011;24934;52.752;6.964;2023-04-07T06:29:31;76.13;;;52.00;;
39218;SDS011;24934;52.752;6.964;2023-04-07T06:31:57;73.17;;;51.53;;
39218;SDS011;24934;52.752;6.964;2023-04-07T06:34:23;71.63;;;49.23;;
39218;SDS011;24934;52.752;6.964;2023-04-07T06:36:49;68.83;;;47.80;;
39218;SDS011;24934;52.752;6.964;2023-04-07T06:39:15;71.03;;;49.60;;
39218;SDS011;24934;52.752;6.964;2023-04-07T06:41:40;68.17;;;48.97;;
39218;SDS011;24934;52.752;6.964;2023-04-07T06:44:08;68.17;;;48.00;;
39218;SDS011;24934;52.752;6.964;2023-04-07T06:46:34;68.33;;;47.93;;
39218;SDS011;24934;52.752;6.964;2023-04-07T06:49:03;65.10;;;46.20;;
39218;SDS011;24934;52.752;6.964;2023-04-07T06:51:29;67.80;;;46.47;;
39218;SDS011;24934;52.752;6.964;2023-04-07T06:53:55;64.80;;;46.67;;
39218;SDS011;24934;52.752;6.964;2023-04-07T06:56:21;65.30;;;46.43;;
39218;SDS011;24934;52.752;6.964;2023-04-07T06:58:47;66.00;;;46.20;;
39218;SDS011;24934;52.752;6.964;2023-04-07T07:01:13;62.10;;;44.77;;
39218;SDS011;24934;52.752;6.964;2023-04-07T07:03:50;63.47;;;46.63;;
39218;SDS011;24934;52.752;6.964;2023-04-07T07:06:16;67.77;;;45.47;;
39218;SDS011;24934;52.752;6.964;2023-04-07T07:08:41;66.27;;;46.47;;
39218;SDS011;24934;52.752;6.964;2023-04-07T07:11:07;60.10;;;45.00;;
39218;SDS011;24934;52.752;6.964;2023-04-07T07:13:33;60.07;;;44.83;;
39218;SDS011;24934;52.752;6.964;2023-04-07T07:15:58;56.93;;;43.47;;
39218;SDS011;24934;52.752;6.964;2023-04-07T07:18:24;59.60;;;45.10;;
39218;SDS011;24934;52.752;6.964;2023-04-07T07:20:49;57.73;;;43.97;;
39218;SDS011;24934;52.752;6.964;2023-04-07T07:23:15;65.70;;;45.20;;
39218;SDS011;24934;52.752;6.964;2023-04-07T07:25:41;62.30;;;44.33;;
39218;SDS011;24934;52.752;6.964;2023-04-07T07:28:06;58.10;;;44.30;;
39218;SDS011;24934;52.752;6.964;2023-04-07T07:30:37;61.40;;;43.50;;
39218;SDS011;24934;52.752;6.964;2023-04-07T07:33:05;59.33;;;44.53;;
39218;SDS011;24934;52.752;6.964;2023-04-07T07:35:30;60.53;;;44.93;;
39218;SDS011;24934;52.752;6.964;2023-04-07T07:37:56;60.37;;;43.90;;
39218;SDS011;24934;52.752;6.964;2023-04-07T07:40:22;58.07;;;45.07;;
39218;SDS011;24934;52.752;6.964;2023-04-07T07:42:48;59.50;;;44.70;;
39218;SDS011;24934;52.752;6.964;2023-04-07T07:45:13;57.63;;;44.13;;
39218;SDS011;24934;52.752;6.964;2023-04-07T07:47:40;58.97;;;44.80;;
39218;SDS011;24934;52.752;6.964;2023-04-07T07:50:05;60.93;;;46.50;;
39218;SDS011;24934;52.752;6.964;2023-04-07T07:52:35;56.40;;;45.57;;
39218;SDS011;24934;52.752;6.964;2023-04-07T07:55:00;57.00;;;44.83;;
39218;SDS011;24934;52.752;6.964;2023-04-07T07:57:27;57.53;;;44.73;;
39218;SDS011;24934;52.752;6.964;2023-04-07T07:59:54;55.87;;;44.63;;
39218;SDS011;24934;52.752;6.964;2023-04-07T08:02:23;57.07;;;45.67;;
39218;SDS011;24934;52.752;6.964;2023-04-07T08:04:54;58.07;;;46.73;;
39218;SDS011;24934;52.752;6.964;2023-04-07T08:07:21;61.13;;;45.77;;
39218;SDS011;24934;52.752;6.964;2023-04-07T08:09:46;57.77;;;45.90;;
39218;SDS011;24934;52.752;6.964;2023-04-07T08:12:12;54.50;;;44.30;;
39218;SDS011;24934;52.752;6.964;2023-04-07T08:14:38;48.73;;;41.47;;
39218;SDS011;24934;52.752;6.964;2023-04-07T08:17:03;49.37;;;41.57;;
39218;SDS011;24934;52.752;6.964;2023-04-07T08:19:29;49.97;;;41.97;;
39218;SDS011;24934;52.752;6.964;2023-04-07T08:21:55;52.70;;;42.33;;
39218;SDS011;24934;52.752;6.964;2023-04-07T08:24:20;50.87;;;41.23;;
39218;SDS011;24934;52.752;6.964;2023-04-07T08:26:49;39.93;;;34.70;;
39218;SDS011;24934;52.752;6.964;2023-04-07T08:29:15;40.57;;;34.07;;
39218;SDS011;24934;52.752;6.964;2023-04-07T08:31:40;36.40;;;32.60;;
39218;SDS011;24934;52.752;6.964;2023-04-07T08:34:06;34.80;;;31.10;;
39218;SDS011;24934;52.752;6.964;2023-04-07T08:36:32;35.23;;;31.43;;
39218;SDS011;24934;52.752;6.964;2023-04-07T08:38:57;32.47;;;29.27;;
39218;SDS011;24934;52.752;6.964;2023-04-07T08:41:29;31.57;;;28.37;;
39218;SDS011;24934;52.752;6.964;2023-04-07T08:44:02;30.67;;;27.57;;
39218;SDS011;24934;52.752;6.964;2023-04-07T08:46:28;28.80;;;25.90;;
39218;SDS011;24934;52.752;6.964;2023-04-07T08:48:55;28.17;;;25.23;;
39218;SDS011;24934;52.752;6.964;2023-04-07T08:51:31;28.43;;;25.67;;
39218;SDS011;24934;52.752;6.964;2023-04-07T08:54:18;29.20;;;26.37;;
39218;SDS011;24934;52.752;6.964;2023-04-07T08:56:45;29.27;;;26.40;;
39218;SDS011;24934;52.752;6.964;2023-04-07T08:59:12;29.30;;;26.30;;
39218;SDS011;24934;52.752;6.964;2023-04-07T09:01:40;28.13;;;25.43;;
39218;SDS011;24934;52.752;6.964;2023-04-07T09:04:06;26.53;;;23.93;;
39218;SDS011;24934;52.752;6.964;2023-04-07T09:06:33;27.30;;;24.60;;
39218;SDS011;24934;52.752;6.964;2023-04-07T09:08:59;27.70;;;25.00;;
39218;SDS011;24934;52.752;6.964;2023-04-07T09:11:26;28.77;;;25.93;;
39218;SDS011;24934;52.752;6.964;2023-04-07T09:13:53;27.37;;;24.70;;
39218;SDS011;24934;52.752;6.964;2023-04-07T09:16:20;27.80;;;25.03;;
39218;SDS011;24934;52.752;6.964;2023-04-07T09:18:46;27.03;;;24.37;;
39218;SDS011;24934;52.752;6.964;2023-04-07T09:21:11;26.43;;;23.93;;
39218;SDS011;24934;52.752;6.964;2023-04-07T09:23:38;25.23;;;22.77;;
39218;SDS011;24934;52.752;6.964;2023-04-07T09:28:46;23.20;;;21.10;;
39218;SDS011;24934;52.752;6.964;2023-04-07T09:31:20;25.00;;;22.57;;
39218;SDS011;24934;52.752;6.964;2023-04-07T09:33:47;24.47;;;22.20;;
39218;SDS011;24934;52.752;6.964;2023-04-07T09:36:13;23.80;;;21.60;;
39218;SDS011;24934;52.752;6.964;2023-04-07T09:38:40;24.03;;;21.73;;
39218;SDS011;24934;52.752;6.964;2023-04-07T09:41:08;24.77;;;22.50;;
39218;SDS011;24934;52.752;6.964;2023-04-07T09:43:38;24.37;;;22.07;;
39218;SDS011;24934;52.752;6.964;2023-04-07T09:46:12;21.80;;;19.90;;
39218;SDS011;24934;52.752;6.964;2023-04-07T09:48:40;22.30;;;20.30;;
39218;SDS011;24934;52.752;6.964;2023-04-07T09:51:14;22.63;;;20.70;;
39218;SDS011;24934;52.752;6.964;2023-04-07T09:53:48;23.13;;;21.13;;
39218;SDS011;24934;52.752;6.964;2023-04-07T09:56:16;23.27;;;21.17;;
39218;SDS011;24934;52.752;6.964;2023-04-07T09:58:46;24.17;;;22.07;;
39218;SDS011;24934;52.752;6.964;2023-04-07T10:01:15;24.00;;;21.80;;
39218;SDS011;24934;52.752;6.964;2023-04-07T10:03:42;24.17;;;21.83;;
39218;SDS011;24934;52.752;6.964;2023-04-07T10:06:11;23.83;;;21.63;;
39218;SDS011;24934;52.752;6.964;2023-04-07T10:08:41;24.80;;;22.40;;
39218;SDS011;24934;52.752;6.964;2023-04-07T10:11:08;24.87;;;22.67;;
39218;SDS011;24934;52.752;6.964;2023-04-07T10:13:36;25.47;;;22.93;;
39218;SDS011;24934;52.752;6.964;2023-04-07T10:16:06;26.00;;;23.40;;
39218;SDS011;24934;52.752;6.964;2023-04-07T10:18:32;24.60;;;22.30;;
39218;SDS011;24934;52.752;6.964;2023-04-07T10:21:00;25.80;;;23.37;;
39218;SDS011;24934;52.752;6.964;2023-04-07T10:25:58;25.70;;;23.30;;
39218;SDS011;24934;52.752;6.964;2023-04-07T10:28:26;23.47;;;21.37;;
39218;SDS011;24934;52.752;6.964;2023-04-07T10:30:54;34.17;;;30.57;;
39218;SDS011;24934;52.752;6.964;2023-04-07T10:33:46;22.90;;;20.70;;
39218;SDS011;24934;52.752;6.964;2023-04-07T10:36:16;23.53;;;21.40;;
39218;SDS011;24934;52.752;6.964;2023-04-07T10:39:17;27.23;;;24.73;;
39218;SDS011;24934;52.752;6.964;2023-04-07T10:41:39;26.37;;;23.97;;
39218;SDS011;24934;52.752;6.964;2023-04-07T10:44:06;22.40;;;20.20;;
39218;SDS011;24934;52.752;6.964;2023-04-07T10:49:14;23.10;;;21.00;;
39218;SDS011;24934;52.752;6.964;2023-04-07T10:51:43;24.53;;;22.20;;
39218;SDS011;24934;52.752;6.964;2023-04-07T10:54:18;27.50;;;25.00;;
39218;SDS011;24934;52.752;6.964;2023-04-07T10:59:27;25.80;;;23.30;;
39218;SDS011;24934;52.752;6.964;2023-04-07T11:04:38;26.07;;;23.67;;
39218;SDS011;24934;52.752;6.964;2023-04-07T11:07:05;26.67;;;24.00;;
39218;SDS011;24934;52.752;6.964;2023-04-07T11:09:31;26.77;;;24.07;;
39218;SDS011;24934;52.752;6.964;2023-04-07T11:11:56;25.93;;;23.33;;
39218;SDS011;24934;52.752;6.964;2023-04-07T11:14:26;24.67;;;22.17;;
39218;SDS011;24934;52.752;6.964;2023-04-07T11:16:52;24.20;;;21.70;;
39218;SDS011;24934;52.752;6.964;2023-04-07T11:19:21;25.53;;;22.93;;
39218;SDS011;24934;52.752;6.964;2023-04-07T11:21:47;23.70;;;21.40;;
39218;SDS011;24934;52.752;6.964;2023-04-07T11:24:32;24.97;;;22.37;;
39218;SDS011;24934;52.752;6.964;2023-04-07T11:26:58;23.23;;;21.03;;
39218;SDS011;24934;52.752;6.964;2023-04-07T11:29:31;23.00;;;20.80;;
39218;SDS011;24934;52.752;6.964;2023-04-07T11:31:58;22.80;;;20.70;;
39218;SDS011;24934;52.752;6.964;2023-04-07T11:34:28;23.27;;;20.87;;
39218;SDS011;24934;52.752;6.964;2023-04-07T11:36:55;22.40;;;20.30;;
39218;SDS011;24934;52.752;6.964;2023-04-07T11:39:24;21.80;;;19.80;;
39218;SDS011;24934;52.752;6.964;2023-04-07T11:41:55;23.07;;;21.07;;
39218;SDS011;24934;52.752;6.964;2023-04-07T11:44:21;24.20;;;22.10;;
39218;SDS011;24934;52.752;6.964;2023-04-07T11:46:54;23.23;;;21.17;;
39218;SDS011;24934;52.752;6.964;2023-04-07T11:49:24;21.27;;;19.47;;
39218;SDS011;24934;52.752;6.964;2023-04-07T11:52:00;22.70;;;20.63;;
39218;SDS011;24934;52.752;6.964;2023-04-07T11:54:44;21.23;;;19.33;;
39218;SDS011;24934;52.752;6.964;2023-04-07T11:57:22;21.23;;;19.33;;
39218;SDS011;24934;52.752;6.964;2023-04-07T12:02:50;21.10;;;19.10;;
39218;SDS011;24934;52.752;6.964;2023-04-07T12:05:17;21.03;;;19.23;;
39218;SDS011;24934;52.752;6.964;2023-04-07T12:07:51;26.03;;;23.30;;
39218;SDS011;24934;52.752;6.964;2023-04-07T12:12:46;21.03;;;19.23;;
39218;SDS011;24934;52.752;6.964;2023-04-07T12:15:13;20.73;;;18.83;;
39218;SDS011;24934;52.752;6.964;2023-04-07T12:17:42;20.27;;;18.50;;
39218;SDS011;24934;52.752;6.964;2023-04-07T12:20:09;19.73;;;18.03;;
39218;SDS011;24934;52.752;6.964;2023-04-07T12:22:35;20.63;;;18.83;;
39218;SDS011;24934;52.752;6.964;2023-04-07T12:25:01;19.80;;;18.07;;
39218;SDS011;24934;52.752;6.964;2023-04-07T12:27:26;18.90;;;17.30;;
39218;SDS011;24934;52.752;6.964;2023-04-07T12:29:52;19.13;;;17.52;;
39218;SDS011;24934;52.752;6.964;2023-04-07T12:32:18;18.98;;;17.17;;
39218;SDS011;24934;52.752;6.964;2023-04-07T12:34:43;19.43;;;17.73;;
39218;SDS011;24934;52.752;6.964;2023-04-07T12:37:09;19.40;;;17.70;;
39218;SDS011;24934;52.752;6.964;2023-04-07T12:39:35;17.90;;;16.48;;
39218;SDS011;24934;52.752;6.964;2023-04-07T12:42:00;19.02;;;17.17;;
39218;SDS011;24934;52.752;6.964;2023-04-07T12:44:26;19.38;;;17.67;;
39218;SDS011;24934;52.752;6.964;2023-04-07T12:46:51;18.95;;;17.25;;
39218;SDS011;24934;52.752;6.964;2023-04-07T12:49:17;18.13;;;16.63;;
39218;SDS011;24934;52.752;6.964;2023-04-07T12:51:43;18.38;;;16.77;;
39218;SDS011;24934;52.752;6.964;2023-04-07T12:54:11;19.52;;;17.80;;
39218;SDS011;24934;52.752;6.964;2023-04-07T12:56:37;19.17;;;17.48;;
39218;SDS011;24934;52.752;6.964;2023-04-07T12:59:04;18.98;;;17.27;;
39218;SDS011;24934;52.752;6.964;2023-04-07T13:01:39;18.35;;;16.83;;
39218;SDS011;24934;52.752;6.964;2023-04-07T13:04:05;17.83;;;16.33;;
39218;SDS011;24934;52.752;6.964;2023-04-07T13:06:30;17.65;;;16.15;;
39218;SDS011;24934;52.752;6.964;2023-04-07T13:08:56;17.70;;;16.05;;
39218;SDS011;24934;52.752;6.964;2023-04-07T13:11:22;16.92;;;15.27;;
39218;SDS011;24934;52.752;6.964;2023-04-07T13:13:47;22.10;;;19.90;;
39218;SDS011;24934;52.752;6.964;2023-04-07T13:16:13;20.42;;;18.40;;
39218;SDS011;24934;52.752;6.964;2023-04-07T13:18:39;19.38;;;17.50;;
39218;SDS011;24934;52.752;6.964;2023-04-07T13:21:04;17.35;;;15.95;;
39218;SDS011;24934;52.752;6.964;2023-04-07T13:23:30;16.58;;;15.18;;
39218;SDS011;24934;52.752;6.964;2023-04-07T13:25:56;16.17;;;14.77;;
39218;SDS011;24934;52.752;6.964;2023-04-07T13:28:23;15.95;;;14.55;;
39218;SDS011;24934;52.752;6.964;2023-04-07T13:30:48;14.80;;;13.52;;
39218;SDS011;24934;52.752;6.964;2023-04-07T13:33:15;15.50;;;13.95;;
39218;SDS011;24934;52.752;6.964;2023-04-07T13:35:41;19.38;;;14.52;;
39218;SDS011;24934;52.752;6.964;2023-04-07T13:38:06;61.45;;;18.25;;
39218;SDS011;24934;52.752;6.964;2023-04-07T13:40:33;15.68;;;14.20;;
39218;SDS011;24934;52.752;6.964;2023-04-07T13:42:58;17.98;;;16.35;;
39218;SDS011;24934;52.752;6.964;2023-04-07T13:45:25;16.92;;;15.40;;
39218;SDS011;24934;52.752;6.964;2023-04-07T13:47:51;17.67;;;14.60;;
39218;SDS011;24934;52.752;6.964;2023-04-07T13:50:17;19.13;;;17.17;;
39218;SDS011;24934;52.752;6.964;2023-04-07T13:52:42;16.25;;;14.88;;
39218;SDS011;24934;52.752;6.964;2023-04-07T13:55:08;17.25;;;15.60;;
39218;SDS011;24934;52.752;6.964;2023-04-07T13:57:34;15.68;;;14.40;;
39218;SDS011;24934;52.752;6.964;2023-04-07T13:59:59;15.27;;;13.98;;
39218;SDS011;24934;52.752;6.964;2023-04-07T14:02:28;14.45;;;13.20;;
39218;SDS011;24934;52.752;6.964;2023-04-07T14:04:54;14.52;;;13.25;;
39218;SDS011;24934;52.752;6.964;2023-04-07T14:07:20;14.98;;;13.68;;
39218;SDS011;24934;52.752;6.964;2023-04-07T14:09:47;13.95;;;12.65;;
39218;SDS011;24934;52.752;6.964;2023-04-07T14:12:13;14.45;;;13.05;;
39218;SDS011;24934;52.752;6.964;2023-04-07T14:14:39;13.80;;;12.43;;
39218;SDS011;24934;52.752;6.964;2023-04-07T14:17:04;13.05;;;11.95;;
39218;SDS011;24934;52.752;6.964;2023-04-07T14:19:30;13.35;;;12.15;;
39218;SDS011;24934;52.752;6.964;2023-04-07T14:21:57;15.18;;;13.80;;
39218;SDS011;24934;52.752;6.964;2023-04-07T14:24:25;16.08;;;14.40;;
39218;SDS011;24934;52.752;6.964;2023-04-07T14:26:51;14.82;;;13.52;;
39218;SDS011;24934;52.752;6.964;2023-04-07T14:29:19;15.50;;;13.85;;
39218;SDS011;24934;52.752;6.964;2023-04-07T14:31:46;14.43;;;13.23;;
39218;SDS011;24934;52.752;6.964;2023-04-07T14:34:15;14.98;;;13.68;;
39218;SDS011;24934;52.752;6.964;2023-04-07T14:36:42;14.63;;;13.27;;
39218;SDS011;24934;52.752;6.964;2023-04-07T14:39:23;16.42;;;14.82;;
39218;SDS011;24934;52.752;6.964;2023-04-07T14:41:49;15.80;;;14.30;;
39218;SDS011;24934;52.752;6.964;2023-04-07T14:44:16;18.75;;;16.83;;
39218;SDS011;24934;52.752;6.964;2023-04-07T14:46:41;17.92;;;16.17;;
39218;SDS011;24934;52.752;6.964;2023-04-07T14:49:07;17.42;;;15.73;;